createdAt,value
2023-04-06T00:01:59.948Z,2.13
2023-04-06T00:05:02.539Z,2.13
2023-04-06T00:08:05.446Z,2.10
2023-04-06T00:11:08.000Z,2.04
2023-04-06T00:14:11.868Z,2.04
2023-04-06T00:17:14.422Z,2.05
2023-04-06T00:20:17.319Z,2.03
2023-04-06T00:23:19.865Z,1.94
2023-04-06T00:26:22.481Z,1.92
2023-04-06T00:29:26.499Z,1.87
2023-04-06T00:32:29.131Z,1.88
2023-04-06T00:35:31.705Z,1.88
2023-04-06T00:38:34.264Z,2.01
2023-04-06T00:41:36.860Z,2.21
2023-04-06T00:44:40.910Z,2.27
2023-04-06T00:47:43.644Z,2.36
2023-04-06T00:50:46.161Z,2.39
2023-04-06T00:53:48.702Z,2.30
2023-04-06T00:56:51.365Z,2.27
2023-04-06T00:59:55.472Z,2.19
2023-04-06T01:02:58.206Z,2.12
2023-04-06T01:06:00.814Z,2.11
2023-04-06T01:09:03.353Z,2.06
2023-04-06T01:12:06.076Z,1.95
2023-04-06T01:15:11.355Z,1.86
2023-04-06T01:18:14.128Z,1.84
2023-04-06T01:21:17.501Z,1.82
2023-04-06T01:24:21.473Z,1.83
2023-04-06T01:27:24.061Z,1.73
2023-04-06T01:30:27.430Z,1.58
2023-04-06T01:33:29.992Z,1.53
2023-04-06T01:36:32.634Z,1.51
2023-04-06T01:39:36.789Z,1.49
2023-04-06T01:42:39.332Z,1.43
2023-04-06T01:45:41.869Z,1.35
2023-04-06T01:48:44.543Z,1.36
2023-04-06T01:51:47.076Z,1.30
2023-04-06T01:54:51.086Z,1.16
2023-04-06T01:57:53.590Z,1.11
2023-04-06T02:00:56.362Z,1.09
2023-04-06T02:03:58.937Z,1.06
2023-04-06T02:07:01.463Z,0.95
2023-04-06T02:10:06.252Z,0.94
2023-04-06T02:13:08.888Z,0.98
2023-04-06T02:16:11.467Z,1.05
2023-04-06T02:19:14.128Z,1.03
2023-04-06T02:22:16.962Z,0.99
2023-04-06T02:25:21.091Z,1.01
2023-04-06T02:28:23.637Z,0.97
2023-04-06T02:31:26.229Z,0.92
2023-04-06T02:34:28.756Z,0.94
2023-04-06T02:37:31.364Z,0.91
2023-04-06T02:40:35.338Z,0.87
2023-04-06T02:43:37.874Z,0.90
2023-04-06T02:46:40.405Z,0.86
2023-04-06T02:49:42.978Z,0.82
2023-04-06T02:52:45.570Z,0.77
2023-04-06T02:55:49.452Z,0.79
2023-04-06T02:58:51.891Z,0.84
2023-04-06T03:01:54.445Z,0.69
2023-04-06T03:04:57.064Z,0.52
2023-04-06T03:07:59.671Z,0.45
2023-04-06T03:11:03.561Z,0.37
2023-04-06T03:14:05.919Z,0.35
2023-04-06T03:17:08.447Z,0.38
2023-04-06T03:20:11.785Z,0.44
2023-04-06T03:23:14.377Z,0.50
2023-04-06T03:26:18.296Z,0.54
2023-04-06T03:29:20.762Z,0.48
2023-04-06T03:32:26.269Z,0.48
2023-04-06T03:35:31.741Z,0.43
2023-04-06T03:38:43.097Z,0.58
2023-04-06T03:42:10.799Z,0.64
2023-04-06T03:45:25.654Z,0.71
2023-04-06T03:53:11.717Z,0.50
2023-04-06T03:56:26.082Z,0.43
2023-04-06T03:59:58.011Z,0.36
2023-04-06T04:03:51.907Z,0.39
2023-04-06T04:07:04.354Z,0.35
2023-04-06T04:10:07.649Z,0.41
2023-04-06T04:13:10.273Z,0.44
2023-04-06T04:16:14.403Z,0.51
2023-04-06T04:19:17.131Z,0.46
2023-04-06T04:22:19.644Z,0.44
2023-04-06T04:25:22.243Z,0.40
2023-04-06T04:28:24.875Z,0.47
2023-04-06T04:31:28.879Z,0.49
2023-04-06T04:34:32.176Z,0.45
2023-04-06T04:37:35.729Z,0.49
2023-04-06T04:40:38.234Z,0.47
2023-04-06T04:43:40.919Z,0.42
2023-04-06T04:46:44.715Z,0.31
2023-04-06T04:49:47.283Z,0.23
2023-04-06T04:52:49.993Z,0.20
2023-04-06T04:55:52.747Z,0.27
2023-04-06T04:58:55.462Z,0.37
2023-04-06T05:01:59.488Z,0.44
2023-04-06T05:05:02.107Z,0.45
2023-04-06T05:08:05.116Z,0.49
2023-04-06T05:11:07.662Z,0.63
2023-04-06T05:14:10.397Z,0.71
2023-04-06T05:17:14.534Z,0.80
2023-04-06T05:20:17.369Z,0.90
2023-04-06T05:23:20.120Z,1.02
2023-04-06T05:26:22.616Z,1.05
2023-04-06T05:29:25.500Z,1.05
2023-04-06T05:32:29.463Z,1.14
2023-04-06T05:35:32.334Z,1.16
2023-04-06T05:38:35.317Z,1.25
2023-04-06T05:41:37.916Z,1.43
2023-04-06T05:44:40.548Z,1.56
2023-04-06T05:47:45.067Z,1.61
2023-04-06T05:50:50.550Z,1.65
2023-04-06T05:53:53.072Z,1.82
2023-04-06T05:56:55.707Z,1.96
2023-04-06T05:59:58.222Z,2.06
2023-04-06T06:03:05.291Z,2.14
2023-04-06T06:06:07.901Z,2.27
2023-04-06T06:09:10.594Z,2.44
2023-04-06T06:12:14.669Z,2.54
2023-04-06T06:15:17.498Z,2.64
2023-04-06T06:18:21.704Z,2.74
2023-04-06T06:21:24.257Z,2.86
2023-04-06T06:24:26.755Z,3.00
2023-04-06T06:27:43.062Z,3.13
2023-04-06T06:30:45.786Z,3.27
2023-04-06T06:33:51.229Z,3.45
2023-04-06T06:36:56.147Z,3.60
2023-04-06T06:39:58.728Z,3.73
2023-04-06T06:43:01.286Z,3.87
2023-04-06T06:46:03.930Z,4.11
2023-04-06T06:49:07.845Z,4.26
2023-04-06T06:52:10.416Z,4.42
2023-04-06T06:55:13.060Z,4.42
2023-04-06T06:58:15.598Z,4.64
2023-04-06T07:01:18.189Z,4.85
2023-04-06T07:04:22.360Z,5.02
2023-04-06T07:07:24.913Z,5.18
2023-04-06T07:10:28.679Z,5.29
2023-04-06T07:13:31.109Z,5.42
2023-04-06T07:16:33.630Z,5.59
2023-04-06T07:19:37.718Z,5.75
2023-04-06T07:22:40.351Z,5.98
2023-04-06T07:25:43.127Z,6.18
2023-04-06T07:28:46.305Z,6.31
2023-04-06T07:31:50.005Z,6.48
2023-04-06T07:34:54.067Z,6.61
2023-04-06T07:37:56.572Z,6.71
2023-04-06T07:40:59.436Z,6.83
2023-04-06T07:44:02.046Z,7.05
2023-04-06T07:47:04.726Z,7.08
2023-04-06T07:50:09.543Z,7.39
2023-04-06T07:53:12.165Z,7.43
2023-04-06T07:56:16.417Z,7.65
2023-04-06T07:59:19.030Z,7.84
2023-04-06T08:02:21.843Z,7.95
2023-04-06T08:05:25.975Z,8.11
2023-04-06T08:08:28.596Z,8.28
2023-04-06T08:11:31.170Z,8.28
2023-04-06T08:14:33.740Z,8.56
2023-04-06T08:17:36.476Z,8.73
2023-04-06T08:20:40.865Z,9.02
2023-04-06T08:23:43.367Z,9.04
2023-04-06T08:26:46.132Z,9.27
2023-04-06T08:29:51.123Z,9.40
2023-04-06T08:32:53.766Z,9.53
2023-04-06T08:35:57.773Z,9.73
2023-04-06T08:39:01.513Z,9.84
2023-04-06T08:42:04.776Z,9.92
2023-04-06T08:45:08.468Z,10.01
2023-04-06T08:48:10.919Z,10.18
2023-04-06T08:51:14.865Z,10.49
2023-04-06T08:54:17.533Z,10.67
2023-04-06T08:57:20.968Z,10.72
2023-04-06T09:00:24.036Z,10.81
2023-04-06T09:03:28.490Z,10.89
2023-04-06T09:06:32.949Z,11.08
2023-04-06T09:09:35.616Z,11.13
2023-04-06T09:12:38.216Z,11.19
2023-04-06T09:15:42.177Z,11.28
2023-04-06T09:18:44.909Z,11.34
2023-04-06T09:21:49.158Z,11.59
2023-04-06T09:24:53.061Z,11.83
2023-04-06T09:28:02.349Z,11.69
2023-04-06T09:31:05.045Z,11.87
2023-04-06T09:34:07.891Z,12.01
2023-04-06T09:37:15.960Z,12.04
2023-04-06T09:40:20.004Z,12.14
2023-04-06T09:43:27.082Z,12.42
2023-04-06T09:46:29.772Z,12.68
2023-04-06T09:49:33.077Z,12.77
2023-04-06T09:52:40.390Z,12.66
2023-04-06T09:55:45.283Z,12.69
2023-04-06T09:58:48.866Z,12.73
2023-04-06T10:01:51.355Z,12.60
2023-04-06T10:04:59.118Z,12.60
2023-04-06T10:08:06.739Z,12.72
2023-04-06T10:11:09.976Z,12.61
2023-04-06T10:14:12.861Z,12.86
2023-04-06T10:17:15.561Z,12.94
2023-04-06T10:20:23.089Z,13.19
2023-04-06T10:23:33.093Z,13.36
2023-04-06T10:26:35.664Z,13.47
2023-04-06T10:29:46.213Z,13.39
2023-04-06T10:32:48.713Z,13.45
2023-04-06T10:35:51.349Z,13.70
2023-04-06T10:38:59.701Z,14.01
2023-04-06T10:42:08.770Z,13.86
2023-04-06T10:45:21.542Z,13.88
2023-04-06T10:48:24.873Z,13.95
2023-04-06T10:51:29.448Z,13.85
2023-04-06T10:54:33.790Z,14.13
2023-04-06T10:57:37.470Z,14.05
2023-04-06T11:00:50.556Z,14.22
2023-04-06T11:03:58.896Z,14.05
2023-04-06T11:07:01.517Z,14.25
2023-04-06T11:10:15.998Z,14.13
2023-04-06T11:13:20.348Z,14.51
2023-04-06T11:16:23.902Z,14.32
2023-04-06T11:19:26.376Z,14.78
2023-04-06T11:22:28.995Z,14.97
2023-04-06T11:25:33.668Z,14.92
2023-04-06T11:28:36.884Z,15.31
2023-04-06T11:31:43.311Z,15.56
2023-04-06T11:34:49.023Z,15.75
2023-04-06T11:37:52.144Z,15.93
2023-04-06T11:40:56.449Z,16.07
2023-04-06T11:43:59.212Z,16.01
2023-04-06T11:47:02.897Z,16.25
2023-04-06T11:50:09.533Z,16.70
2023-04-06T11:53:12.106Z,17.06
2023-04-06T11:56:26.465Z,17.45
2023-04-06T11:59:29.376Z,17.45
2023-04-06T12:02:33.254Z,17.20
2023-04-06T12:05:36.172Z,17.47
2023-04-06T12:08:38.935Z,17.39
2023-04-06T12:11:43.001Z,16.63
2023-04-06T12:14:45.670Z,16.56
2023-04-06T12:17:48.370Z,17.11
2023-04-06T12:20:51.102Z,17.45
2023-04-06T12:23:53.633Z,18.02
2023-04-06T12:27:08.772Z,18.00
2023-04-06T12:30:13.811Z,18.53
2023-04-06T12:33:16.394Z,18.57
2023-04-06T12:36:20.805Z,18.35
2023-04-06T12:39:23.685Z,18.18
2023-04-06T12:42:27.549Z,18.19
2023-04-06T12:45:30.262Z,18.43
2023-04-06T12:48:33.213Z,18.97
2023-04-06T12:51:35.774Z,18.99
2023-04-06T12:54:38.345Z,19.52
2023-04-06T12:57:42.637Z,24.73
2023-04-06T13:00:46.683Z,27.24
2023-04-06T13:03:49.410Z,31.92
2023-04-06T13:06:51.944Z,30.96
2023-04-06T13:09:54.901Z,31.56
2023-04-06T13:12:58.776Z,34.56
2023-04-06T13:16:03.103Z,33.31
2023-04-06T13:19:05.805Z,29.93
2023-04-06T13:22:11.320Z,29.07
2023-04-06T13:25:13.947Z,27.40
2023-04-06T13:28:17.794Z,27.65
2023-04-06T13:31:20.691Z,27.18
2023-04-06T13:34:23.262Z,26.67
2023-04-06T13:37:26.134Z,30.17
2023-04-06T13:40:28.672Z,28.33
2023-04-06T13:43:32.583Z,27.13
2023-04-06T13:46:35.086Z,28.04
2023-04-06T13:49:37.914Z,25.68
2023-04-06T13:52:40.543Z,25.61
2023-04-06T13:55:43.143Z,27.15
2023-04-06T13:58:47.163Z,24.92
2023-04-06T14:01:50.263Z,23.45
2023-04-06T14:04:52.969Z,23.61
2023-04-06T14:07:56.306Z,23.62
2023-04-06T14:10:58.745Z,22.96
2023-04-06T14:14:02.933Z,22.76
2023-04-06T14:17:05.769Z,22.69
2023-04-06T14:20:14.794Z,21.58
2023-04-06T14:23:17.421Z,22.45
2023-04-06T14:26:20.583Z,23.80
2023-04-06T14:29:24.448Z,27.26
2023-04-06T14:32:27.598Z,24.96
2023-04-06T14:35:31.643Z,24.32
2023-04-06T14:38:34.581Z,25.31
2023-04-06T14:41:37.211Z,28.24
2023-04-06T14:44:43.971Z,30.32
2023-04-06T14:47:46.515Z,30.09
2023-04-06T14:50:54.266Z,29.21
2023-04-06T14:53:56.957Z,28.03
2023-04-06T14:56:59.549Z,27.64
2023-04-06T15:00:04.437Z,27.72
2023-04-06T15:03:07.166Z,27.89
2023-04-06T15:06:16.165Z,29.45
2023-04-06T15:09:18.792Z,29.57
2023-04-06T15:12:21.457Z,27.36
2023-04-06T15:15:25.656Z,26.71
2023-04-06T15:18:28.402Z,24.94
2023-04-06T15:21:31.258Z,23.15
2023-04-06T15:24:33.998Z,22.27
2023-04-06T15:27:36.582Z,22.46
2023-04-06T15:30:40.757Z,22.48
2023-04-06T15:33:44.730Z,22.00
2023-04-06T15:36:47.883Z,21.86
2023-04-06T15:39:50.883Z,21.61
2023-04-06T15:42:53.425Z,21.58
2023-04-06T15:45:57.305Z,22.31
2023-04-06T15:49:00.114Z,22.39
2023-04-06T15:52:02.682Z,22.01
2023-04-06T15:55:07.083Z,21.49
2023-04-06T15:58:09.807Z,21.13
2023-04-06T16:01:15.284Z,20.79
2023-04-06T16:04:17.954Z,20.23
2023-04-06T16:07:20.930Z,19.62
2023-04-06T16:10:23.467Z,19.32
2023-04-06T16:13:26.263Z,19.35
2023-04-06T16:16:30.534Z,19.12
2023-04-06T16:19:33.199Z,18.27
2023-04-06T16:22:36.740Z,17.60
2023-04-06T16:25:39.845Z,17.20
2023-04-06T16:28:42.510Z,16.80
2023-04-06T16:31:47.942Z,16.60
2023-04-06T16:34:50.990Z,16.67
2023-04-06T16:37:53.582Z,16.55
2023-04-06T16:41:01.234Z,16.10
2023-04-06T16:44:03.949Z,15.97
2023-04-06T16:47:08.476Z,15.86
2023-04-06T16:50:12.081Z,15.37
2023-04-06T16:53:14.782Z,15.25
2023-04-06T16:56:17.485Z,15.12
2023-04-06T16:59:20.487Z,14.92
2023-04-06T17:02:24.602Z,14.89
2023-04-06T17:05:27.675Z,14.54
2023-04-06T17:08:30.387Z,14.44
2023-04-06T17:11:43.746Z,14.33
2023-04-06T17:14:49.060Z,14.24
2023-04-06T17:17:54.077Z,14.23
2023-04-06T17:20:56.721Z,14.01
2023-04-06T17:23:59.442Z,13.65
2023-04-06T17:27:02.736Z,13.63
2023-04-06T17:30:06.451Z,13.47
2023-04-06T17:33:10.561Z,13.51
2023-04-06T17:36:13.030Z,13.61
2023-04-06T17:39:15.584Z,13.20
2023-04-06T17:42:18.836Z,13.07
2023-04-06T17:45:21.488Z,13.01
2023-04-06T17:48:26.669Z,13.13
2023-04-06T17:51:29.300Z,12.96
2023-04-06T17:54:31.950Z,13.03
2023-04-06T17:57:34.585Z,13.01
2023-04-06T18:00:37.250Z,12.97
2023-04-06T18:03:41.432Z,12.93
2023-04-06T18:06:44.095Z,12.82
2023-04-06T18:09:46.696Z,12.87
2023-04-06T18:12:49.482Z,12.81
2023-04-06T18:15:54.207Z,12.69
2023-04-06T18:18:58.351Z,12.79
2023-04-06T18:22:01.544Z,12.73
2023-04-06T18:25:04.091Z,12.76
2023-04-06T18:28:06.947Z,12.73
2023-04-06T18:31:09.547Z,12.67
2023-04-06T18:34:13.608Z,12.56
2023-04-06T18:37:16.330Z,12.57
2023-04-06T18:40:34.732Z,12.58
2023-04-06T18:43:37.966Z,12.56
2023-04-06T18:46:40.849Z,12.39
2023-04-06T18:49:44.781Z,12.40
2023-04-06T18:52:47.407Z,12.34
2023-04-06T18:55:51.469Z,12.46
2023-04-06T18:58:54.140Z,12.49
2023-04-06T19:01:56.916Z,12.47
2023-04-06T19:05:03.416Z,12.45
2023-04-06T19:08:06.181Z,12.41
2023-04-06T19:11:09.003Z,12.50
2023-04-06T19:14:11.609Z,12.50
2023-04-06T19:17:14.142Z,12.46
2023-04-06T19:20:18.573Z,12.48
2023-04-06T19:23:21.457Z,12.48
2023-04-06T19:26:27.017Z,12.49
2023-04-06T19:29:29.704Z,12.33
2023-04-06T19:32:32.389Z,12.41
2023-04-06T19:35:36.555Z,12.30
2023-04-06T19:38:39.358Z,12.35
2023-04-06T19:41:41.853Z,12.28
2023-04-06T19:44:44.427Z,12.26
2023-04-06T19:47:47.386Z,12.27
2023-04-06T19:50:53.548Z,12.25
2023-04-06T19:53:56.136Z,12.27
2023-04-06T19:56:58.696Z,12.14
2023-04-06T20:00:01.279Z,12.11
2023-04-06T20:03:04.052Z,12.06
2023-04-06T20:06:08.217Z,12.01
2023-04-06T20:09:11.942Z,11.86
2023-04-06T20:12:14.470Z,11.70
2023-04-06T20:15:17.316Z,11.64
2023-04-06T20:18:19.948Z,11.78
2023-04-06T20:21:24.123Z,11.62
2023-04-06T20:24:26.779Z,11.60
2023-04-06T20:27:29.300Z,11.56
2023-04-06T20:30:32.232Z,11.58
2023-04-06T20:33:35.353Z,11.59
2023-04-06T20:36:40.050Z,11.56
2023-04-06T20:39:42.876Z,11.50
2023-04-06T20:42:46.177Z,11.41
2023-04-06T20:45:49.522Z,11.24
2023-04-06T20:48:53.430Z,11.27
2023-04-06T20:51:57.454Z,11.05
2023-04-06T20:55:01.484Z,11.18
2023-04-06T20:58:04.035Z,11.09
2023-04-06T21:01:12.787Z,11.15
2023-04-06T21:04:15.824Z,11.01
2023-04-06T21:07:20.064Z,10.78
2023-04-06T21:10:23.672Z,10.92
2023-04-06T21:13:26.139Z,11.03
2023-04-06T21:16:28.775Z,10.95
2023-04-06T21:19:31.279Z,10.82
2023-04-06T21:22:35.538Z,10.70
2023-04-06T21:25:38.456Z,10.52
2023-04-06T21:28:41.009Z,10.38
2023-04-06T21:31:43.600Z,10.17
2023-04-06T21:34:46.621Z,9.91
2023-04-06T21:37:50.612Z,9.91
2023-04-06T21:40:56.625Z,9.68
2023-04-06T21:43:59.422Z,9.53
2023-04-06T21:47:02.077Z,9.40
2023-04-06T21:50:05.328Z,9.14
2023-04-06T21:53:09.321Z,8.85
2023-04-06T21:56:11.924Z,8.64
2023-04-06T21:59:15.741Z,8.57
2023-04-06T22:02:18.440Z,8.49
2023-04-06T22:05:21.081Z,8.27
2023-04-06T22:08:33.384Z,8.29
2023-04-06T22:11:36.681Z,8.24
2023-04-06T22:14:39.141Z,8.40
2023-04-06T22:17:41.876Z,8.47
2023-04-06T22:20:44.645Z,8.44
2023-04-06T22:23:48.685Z,8.45
2023-04-06T22:26:51.227Z,8.41
2023-04-06T22:29:53.915Z,8.28
2023-04-06T22:32:56.504Z,8.30
2023-04-06T22:35:59.073Z,8.26
2023-04-06T22:39:03.053Z,8.30
2023-04-06T22:42:06.384Z,8.33
2023-04-06T22:45:09.717Z,8.28
2023-04-06T22:48:12.240Z,8.23
2023-04-06T22:51:14.904Z,8.24
2023-04-06T22:54:19.194Z,8.11
2023-04-06T22:57:22.550Z,8.12
2023-04-06T23:00:25.397Z,8.02
2023-04-06T23:03:28.154Z,8.07
2023-04-06T23:06:31.286Z,8.14
2023-04-06T23:09:35.100Z,8.25
2023-04-06T23:12:37.644Z,8.31
2023-04-06T23:15:40.188Z,8.28
2023-04-06T23:18:42.748Z,8.31
2023-04-06T23:21:45.302Z,8.32
2023-04-06T23:24:50.077Z,8.27
2023-04-06T23:27:53.065Z,8.20
2023-04-06T23:30:55.595Z,8.19
2023-04-06T23:33:58.099Z,8.25
2023-04-06T23:37:02.865Z,8.21
2023-04-06T23:40:08.659Z,8.20
2023-04-06T23:43:11.262Z,8.14
2023-04-06T23:46:16.874Z,8.17
2023-04-06T23:49:19.498Z,8.19
2023-04-06T23:52:22.132Z,8.20
2023-04-06T23:55:26.254Z,8.23
2023-04-06T23:58:28.916Z,8.21
